Latest Weather Observations for Morawa Airport

IDW60801

Issued at 5:33 pm WST Saturday 3 December 2016 (issued every 30 minutes, with the page automatically refreshed every 10 minutes)

About weather observations | Map of weather stations | Latest weather observations for WA | Other Formats
Station Details ID: 008296 Name: MORAWA AIRPORT Lat: -29.20 Lon: 116.02 Height: 271.4 m
Data from the previous 72 hours. | See also: Recent months at Morawa Airport
Date/Time
WST
Temp
°C
App
Temp
°C
Dew
Point
°C
Rel
Hum
%
Delta-T
°C
Wind Press
QNH
hPa
Press
MSL
hPa
Rain since
9am
mm
Dir  Spd
km/h
Gust
km/h
Spd
kts
Gust
kts
03/05:30pm 24.8 20.0 8.7 36 8.8 SW 24 37 13 20 1009.3 1007.7 0.0
03/05:00pm 25.8 20.9 6.9 30 10.1 SW 22 32 12 17 1009.0 1007.4 0.0
03/04:30pm 27.1 22.0 6.0 26 11.1 SW 22 35 12 19 1008.9 1007.3 0.0
03/04:00pm 27.5 22.6 5.1 24 11.7 WSW 20 33 11 18 1008.7 1007.1 0.0
03/03:30pm 27.7 22.0 2.7 20 12.5 SW 22 35 12 19 1008.6 1007.0 0.0
03/03:00pm 28.1 22.8 3.0 20 12.7 WSW 20 39 11 21 1008.6 1007.0 0.0
03/02:30pm 27.9 22.1 4.2 22 12.2 SW 24 37 13 20 1008.7 1007.1 0.0
03/02:00pm 28.0 22.8 3.7 21 12.4 WSW 20 30 11 16 1008.8 1007.2 0.0
03/01:30pm 27.9 22.3 3.6 21 12.3 SW 22 37 12 20 1008.9 1007.3 0.0
03/01:00pm 27.2 22.3 4.3 23 11.7 SW 19 32 10 17 1008.9 1007.3 0.0
03/12:30pm 25.9 21.3 5.5 27 10.6 SW 19 28 10 15 1009.2 1007.6 0.0
03/12:00pm 26.0 21.4 5.6 27 10.6 WSW 19 28 10 15 1009.5 1008.0 0.0
03/11:30am 24.6 20.7 7.3 33 9.2 WSW 17 26 9 14 1009.8 1008.2 0.0
03/11:00am 25.4 22.0 7.5 32 9.6 SW 15 26 8 14 1010.0 1008.4 0.0
03/10:30am 22.1 18.1 8.2 41 7.4 SW 19 28 10 15 1010.3 1008.7 0.0
03/10:00am 22.1 18.4 7.9 40 7.5 SW 17 28 9 15 1010.2 1008.6 0.0
03/09:30am 21.8 18.1 8.0 41 7.3 SSW 17 24 9 13 1010.3 1008.7 0.0
03/09:00am 20.3 17.2 8.9 48 6.1 SW 15 24 8 13 1010.3 1008.7 0.0
03/08:30am 19.8 16.5 9.7 52 5.5 SSW 17 26 9 14 1010.4 1008.8 0.0
03/08:00am 17.8 14.7 10.2 61 4.1 SW 17 24 9 13 1010.2 1008.6 0.0
03/07:30am 17.5 14.6 10.9 65 3.6 SSW 17 22 9 12 1010.2 1008.6 0.0
03/07:00am 17.0 13.8 11.1 68 3.2 SSW 19 26 10 14 1009.9 1008.3 0.0
03/06:30am 15.9 13.9 11.5 75 2.4 SSW 13 19 7 10 1009.9 1008.3 0.0
03/06:00am 14.4 13.2 11.7 84 1.5 SW 9 13 5 7 1009.3 1007.7 0.0
03/05:30am 13.9 12.8 11.9 88 1.1 SSW 9 13 5 7 1009.1 1007.5 0.0
03/05:00am 13.9 12.8 11.9 88 1.1 SSW 9 13 5 7 1008.8 1007.2 0.0
03/04:30am 14.4 13.0 12.1 86 1.3 SSW 11 13 6 7 1008.8 1007.2 0.0
03/04:00am 14.3 12.8 12.0 86 1.3 SSW 11 15 6 8 1008.9 1007.3 0.0
03/03:30am 14.7 12.5 12.0 84 1.5 SSW 15 22 8 12 1008.8 1007.2 0.0
03/03:00am 14.6 12.2 12.6 88 1.1 SSW 17 24 9 13 1008.7 1007.1 0.0
03/02:30am 14.3 13.1 12.9 91 0.8 SSW 11 15 6 8 1008.7 1007.1 0.0
03/02:00am 14.3 12.4 13.0 92 0.7 SSW 15 20 8 11 1008.6 1007.0 0.0
03/01:30am 14.6 12.7 13.0 90 0.9 SSW 15 22 8 12 1008.8 1007.2 0.0
03/01:00am 15.1 13.1 12.6 85 1.4 SSW 15 20 8 11 1009.0 1007.4 0.0
03/12:30am 15.6 13.9 12.4 81 1.8 SSW 13 20 7 11 1009.1 1007.5 0.0
03/12:00am 16.1 14.8 11.3 73 2.6 SSW 9 13 5 7 1009.2 1007.6 0.0
 
Date/Time
WST
Temp
°C
App
Temp
°C
Dew
Point
°C
Rel
Hum
%
Delta-T
°C
Wind Press
QNH
hPa
Press
MSL
hPa
Rain since
9am
mm
Dir  Spd
km/h
Gust
km/h
Spd
kts
Gust
kts
02/11:30pm 17.1 15.3 10.9 67 3.4 SSW 11 15 6 8 1009.2 1007.6 0.0
02/11:00pm 17.9 15.6 10.5 62 4.0 SSW 13 17 7 9 1009.4 1007.8 0.0
02/10:30pm 18.7 16.6 9.8 56 4.8 SSW 11 17 6 9 1009.2 1007.6 0.0
02/10:00pm 19.7 17.0 9.0 50 5.7 SW 13 22 7 12 1009.4 1007.8 0.0
02/09:30pm 20.5 17.7 8.5 46 6.4 SW 13 20 7 11 1009.7 1008.1 0.0
02/09:00pm 21.4 17.8 8.3 43 7.0 SW 17 26 9 14 1009.4 1007.8 0.0
02/08:30pm 22.1 18.8 7.9 40 7.5 SW 15 22 8 12 1009.4 1007.8 0.0
02/08:00pm 23.0 19.2 7.5 37 8.2 WSW 17 24 9 13 1009.3 1007.7 0.0
02/07:30pm 24.2 20.2 8.2 36 8.6 WSW 19 30 10 16 1009.0 1007.4 0.0
02/07:00pm 25.7 21.0 7.8 32 9.7 WSW 22 35 12 19 1008.6 1007.0 0.0
02/06:30pm 27.6 22.1 7.5 28 10.9 SW 26 33 14 18 1008.1 1006.5 0.0
02/06:00pm 29.0 23.4 7.0 25 11.9 SW 26 39 14 21 1007.7 1006.1 0.0
02/05:30pm 30.4 25.1 7.0 23 12.8 SW 24 41 13 22 1007.5 1005.9 0.0
02/05:00pm 31.8 26.5 6.8 21 13.7 WSW 24 39 13 21 1007.2 1005.6 0.0
02/04:30pm 33.1 28.2 7.1 20 14.4 SW 22 35 12 19 1007.0 1005.4 0.0
02/04:00pm 34.0 28.8 5.5 17 15.5 W 22 32 12 17 1006.9 1005.3 0.0
02/03:30pm 34.8 30.7 0.0 11 17.4 W 11 20 6 11 1006.9 1005.3 0.0
02/03:00pm 34.8 31.3 1.2 12 17.1 WSW 9 26 5 14 1007.0 1005.4 0.0
02/02:30pm 33.7 31.0 2.5 14 16.1 SW 6 11 3 6 1007.3 1005.7 0.0
02/02:00pm 34.6 31.8 3.2 14 16.5 SW 7 24 4 13 1007.7 1006.1 0.0
02/01:30pm 34.8 31.3 3.4 14 16.6 SW 11 24 6 13 1008.1 1006.5 0.0
02/01:00pm 32.5 29.5 4.3 17 14.9 WSW 9 17 5 9 1008.4 1006.8 0.0
02/12:30pm 32.5 29.0 3.5 16 15.1 W 11 22 6 12 1009.0 1007.4 0.0
02/12:00pm 32.2 29.3 4.9 18 14.6 SW 9 20 5 11 1009.3 1007.7 0.0
02/11:30am 31.5 28.8 5.8 20 13.8 SSW 9 17 5 9 1009.8 1008.2 0.0
02/11:00am 30.6 28.1 6.5 22 13.1 SW 9 17 5 9 1010.1 1008.5 0.0
02/10:30am 30.5 28.7 7.0 23 12.8 ENE 6 9 3 5 1010.6 1009.0 0.0
02/10:00am 28.7 27.1 7.9 27 11.4 ENE 6 11 3 6 1010.8 1009.2 0.0
02/09:30am 28.0 26.4 8.8 30 10.7 ENE 7 15 4 8 1011.1 1009.5 0.0
02/09:00am 26.6 24.6 8.6 32 9.9 ENE 9 19 5 10 1011.3 1009.7 0.0
02/08:30am 25.1 23.1 8.6 35 9.0 ENE 9 13 5 7 1011.7 1010.1 0.0
02/08:00am 23.0 20.9 8.3 39 7.9 ENE 9 15 5 8 1011.9 1010.3 0.0
02/07:30am 19.9 18.0 8.9 49 5.9 ESE 9 13 5 7 1012.0 1010.4 0.0
02/07:00am 17.4 15.4 8.5 56 4.6 SE 9 13 5 7 1012.0 1010.4 0.0
02/06:30am 16.3 14.5 9.3 63 3.7 SSE 9 13 5 7 1012.0 1010.4 0.0
02/06:00am 14.7 13.2 9.3 70 2.8 SSW 7 11 4 6 1011.9 1010.3 0.0
02/05:30am 13.6 12.1 9.1 74 2.3 SSW 7 9 4 5 1011.7 1010.1 0.0
02/05:00am 13.5 11.6 9.2 75 2.2 SSW 9 11 5 6 1011.7 1010.1 0.0
02/04:30am 13.8 12.3 9.3 74 2.3 S 7 9 4 5 1011.4 1009.8 0.0
02/04:00am 13.9 12.5 8.9 72 2.6 S 6 9 3 5 1011.2 1009.6 0.0
02/03:30am 14.1 12.5 8.9 71 2.7 S 7 9 4 5 1011.3 1009.7 0.0
02/03:00am 14.8 12.9 9.2 69 2.9 S 9 13 5 7 1011.4 1009.8 0.0
02/02:30am 14.8 12.9 9.0 68 3.0 S 9 13 5 7 1011.3 1009.7 0.0
02/02:00am 15.2 13.3 8.9 66 3.3 S 9 11 5 6 1011.4 1009.8 0.0
02/01:30am 15.6 13.2 8.8 64 3.5 S 11 13 6 7 1011.7 1010.1 0.0
02/01:00am 16.0 13.2 8.7 62 3.8 S 13 19 7 10 1011.8 1010.2 0.0
02/12:30am 16.4 13.7 8.9 61 3.9 S 13 19 7 10 1011.9 1010.3 0.0
02/12:00am 16.8 13.7 9.0 60 4.1 S 15 20 8 11 1012.0 1010.4 0.0
 
Date/Time
WST
Temp
°C
App
Temp
°C
Dew
Point
°C
Rel
Hum
%
Delta-T
°C
Wind Press
QNH
hPa
Press
MSL
hPa
Rain since
9am
mm
Dir  Spd
km/h
Gust
km/h
Spd
kts
Gust
kts
01/11:30pm 17.2 14.0 8.6 57 4.5 SSW 15 20 8 11 1012.2 1010.6 0.0
01/11:00pm 17.9 14.5 9.0 56 4.7 S 17 24 9 13 1012.3 1010.7 0.0
01/10:30pm 18.6 14.8 9.1 54 5.0 S 19 26 10 14 1012.5 1010.9 0.0
01/10:00pm 19.7 15.0 9.3 51 5.6 S 24 37 13 20 1012.5 1010.9 0.0
01/09:30pm 20.8 17.0 9.7 49 6.0 S 20 39 11 21 1012.3 1010.7 0.0
01/09:00pm 21.9 17.0 10.1 47 6.5 SSW 26 35 14 19 1012.0 1010.4 0.0
01/08:30pm 23.2 17.5 9.9 43 7.3 SSW 30 43 16 23 1011.7 1010.1 0.0
01/08:00pm 24.0 19.6 10.3 42 7.7 SSW 24 33 13 18 1011.5 1009.9 0.0
01/07:30pm 27.2 23.9 6.6 27 11.0 S 13 19 7 10 1011.0 1009.4 0.0
01/07:00pm 28.2 23.9 6.9 26 11.5 S 19 24 10 13 1010.7 1009.1 0.0
01/06:30pm 29.2 25.1 6.0 23 12.4 SSE 17 24 9 13 1010.4 1008.8 0.0
01/06:00pm 30.0 25.5 6.0 22 12.9 S 19 28 10 15 1010.2 1008.6 0.0
01/05:30pm 30.7 26.8 5.2 20 13.5 S 15 24 8 13 1010.0 1008.4 0.0
01/05:00pm 31.0 27.1 5.4 20 13.7 S 15 26 8 14 1009.9 1008.3 0.0
01/04:30pm 31.7 27.8 5.3 19 14.1 S 15 26 8 14 1010.1 1008.5 0.0
01/04:00pm 31.2 27.7 5.6 20 13.7 SSE 13 24 7 13 1010.3 1008.7 0.0
01/03:30pm 31.7 27.6 6.0 20 13.9 SSW 17 26 9 14 1010.4 1008.8 0.0
01/03:00pm 30.8 27.4 6.0 21 13.4 SSE 13 26 7 14 1010.8 1009.2 0.0
01/02:30pm 31.1 26.9 5.5 20 13.7 S 17 35 9 19 1011.0 1009.4 0.0
01/02:00pm 31.4 27.2 5.8 20 13.8 SSE 17 24 9 13 1011.4 1009.8 0.0
01/01:30pm 30.4 25.8 5.6 21 13.2 SSE 19 30 10 16 1011.8 1010.2 0.0
01/01:00pm 30.3 25.5 5.6 21 13.2 S 20 32 11 17 1012.2 1010.6 0.0
01/12:30pm 29.4 24.9 6.1 23 12.5 SSE 19 32 10 17 1012.5 1010.9 0.0
01/12:00pm 28.4 24.6 7.6 27 11.3 SSE 17 28 9 15 1012.9 1011.4 0.0
01/11:30am 28.4 24.6 7.6 27 11.3 SSE 17 30 9 16 1013.2 1011.7 0.0
01/11:00am 27.8 24.1 8.1 29 10.8 SSE 17 28 9 15 1013.7 1012.1 0.0
01/10:30am 26.4 22.9 8.8 33 9.7 SSE 17 24 9 13 1013.9 1012.3 0.0
01/10:00am 25.5 21.5 8.9 35 9.1 SSE 20 28 11 15 1014.1 1012.5 0.0
01/09:30am 24.1 20.2 9.3 39 8.1 SE 20 30 11 16 1014.3 1012.7 0.0
01/09:00am 22.5 18.8 9.6 44 7.1 SE 19 24 10 13 1014.7 1013.1 0.0
01/08:30am 21.2 17.0 9.8 48 6.2 SSE 22 30 12 16 1014.7 1013.1 0.0
01/08:00am 20.1 16.4 10.2 53 5.4 SSE 20 30 11 16 1014.8 1013.2 0.0
01/07:30am 18.2 14.2 10.3 60 4.3 SSE 22 30 12 16 1014.9 1013.7 0.0
01/07:00am 17.6 14.1 10.9 65 3.7 SSE 20 28 11 15 1014.7 1013.4 0.0
01/06:30am 15.7 13.3 11.5 76 2.3 S 15 20 8 11 1014.6 1013.3 0.0
01/06:00am 14.8 13.0 12.1 84 1.5 S 13 19 7 10 1014.5 1013.2 0.0
01/05:30am 13.6 12.6 12.2 91 0.8 S 9 13 5 7 1014.2 1012.9 0.0
01/05:00am 13.6 12.2 12.2 91 0.8 SSW 11 15 6 8 1014.0 1012.7 0.0
01/04:30am 13.8 12.4 12.2 90 0.9 S 11 17 6 9 1013.9 1012.6 0.0
01/04:00am 13.9 12.4 11.9 88 1.1 S 11 17 6 9 1014.0 1012.7 0.0
01/03:30am 14.1 12.6 12.0 87 1.1 S 11 17 6 9 1013.8 1012.5 0.0
01/03:00am 14.3 12.4 11.8 85 1.4 S 13 17 7 9 1013.8 1012.5 0.0
01/02:30am 14.5 12.6 11.7 83 1.5 S 13 19 7 10 1013.8 1012.5 0.0
01/02:00am 14.8 11.5 11.6 81 1.7 S 20 28 11 15 1013.9 1012.6 0.0
01/01:30am 15.0 12.3 11.6 80 1.9 S 17 26 9 14 1014.1 1012.8 0.0
01/01:00am 15.3 12.2 11.7 79 2.0 S 19 24 10 13 1014.2 1012.9 0.0
01/12:30am 15.6 12.3 11.6 77 2.2 S 20 28 11 15 1014.2 1012.9 0.0
01/12:00am 16.0 12.8 11.4 74 2.5 SSW 19 28 10 15 1014.3 1013.0 0.0
 
Date/Time
WST
Temp
°C
App
Temp
°C
Dew
Point
°C
Rel
Hum
%
Delta-T
°C
Wind Press
QNH
hPa
Press
MSL
hPa
Rain since
9am
mm
Dir  Spd
km/h
Gust
km/h
Spd
kts
Gust
kts
30/11:30pm 16.6 12.0 10.9 69 3.1 SSW 26 35 14 19 1014.3 1013.0 0.0
30/11:00pm 17.5 13.9 11.8 69 3.2 SSW 22 33 12 18 1014.3 1013.0 0.0
30/10:30pm 18.6 14.6 11.7 64 3.8 SSW 24 33 13 18 1014.1 1012.8 0.0
30/10:00pm 19.7 15.1 11.2 58 4.7 SSW 26 35 14 19 1014.0 1012.7 0.0
30/09:30pm 20.6 16.4 11.0 54 5.3 SSW 24 33 13 18 1013.8 1012.5 0.0
30/09:00pm 21.3 16.3 11.1 52 5.7 SSW 28 41 15 22 1013.5 1012.2 0.0
30/08:30pm 22.4 17.4 10.9 48 6.4 SSW 28 35 15 19 1013.1 1011.9 0.0
30/08:00pm 23.4 18.4 10.8 45 7.1 SSW 28 39 15 21 1012.8 1011.6 0.0
30/07:30pm 24.6 18.9 9.7 39 8.3 SSW 30 41 16 22 1012.4 1011.2 0.0
30/07:00pm 26.1 20.7 9.5 35 9.2 SSW 28 43 15 23 1011.9 1010.7 0.0
30/06:30pm 28.0 22.5 9.3 31 10.5 SSW 28 39 15 21 1011.3 1010.0 0.0
30/06:00pm 30.6 26.0 8.3 25 12.5 SW 22 41 12 22 1010.7 1009.4 0.0

Other Formats:

Comma delimited format used in spreadsheet applications
http://www.bom.gov.au/fwo/IDW60801/IDW60801.94417.axf

JavaScript Object Notation format (JSON) in row-major order
http://www.bom.gov.au/fwo/IDW60801/IDW60801.94417.json